首页
METAR-TAF:

METAR-TAF

机场 :

Sarasota-Bradenton International Airport

Sarasota / 布雷登顿, 佛罗里达州, 美国

纬度: 27-24-05N, 经度: 082-33-31W, 海拔: 9米

当前天气观测

该预报发布于58分钟前的11:53 UTC
风速7节,风向东转东北
温度 12°C
湿度 94%
气压 1023 hPa
能見度: 16.1公里
天空无云

METAR: KSRQ 231153Z 06007KT 10SM CLR 12/11 A3021 RMK AO2 SLP229 T01170106 10128 20117 53008

时间: 07:51 (12:51 UTC)

预报

该预报发布于1小时和12分钟前的11:39 UTC
预报有效从23日的 12点(UTC)到 24日的 12点(UTC)
风速7节,风向东转东北
能見度: 10公里
天空无云
从 23日的 1400点(UTC)
风速9节,风向
能見度: 10公里
少量云层高于3000英尺
从 23日的 2000点(UTC)
风速8节,风向西
能見度: 10公里
散云层高于4000英尺
散云层高于25000英尺
从 24日的 0100点(UTC)
风速6节,风向多变
能見度: 10公里
少量云层高于3000英尺
散云层高于25000英尺

TAF: KSRQ 231139Z 2312/2412 06007KT P6SM SKC FM231400 09009KT P6SM FEW030 FM232000 27008KT P6SM SCT040 SCT250 FM240100 VRB06KT P6SM FEW030 SCT250

超过4000个机场的气象观测和天气预报(METAR&TAF报告)。

可查询的气象台以黄色和红色小点在地图上表示。

将鼠标移到小点上方,可查看气象台名称。

然后点击查看天气观测和预报。

如需切换地图:点击带黑十字的绿色按钮放大地图;点击带横线的绿色按钮缩小地图;或者点击绿色箭头查看邻近地区的地图。


METAR-TAF: